Impacts METAR Board
IDs:

KBWI - Baltimore-Washington, MD, US

Updated at: 0900 UTC 18 Jan 2019
Potential Impact None Slight Moderate High
Time 17/21Z 17/22Z 17/23Z 18/00Z 18/01Z 18/02Z 18/03Z 18/04Z 18/05Z 18/06Z 18/07Z 18/08Z 18/09Z
Temp34 34 34 33 31 31 31 31 31 31 31 31 32
Dewpt23 24 25 27 29 30 30 30 30 30 30 30 31
Altim30.27 30.25 30.25 30.24 30.23 30.21 30.20 30.19 30.18 30.15 30.13 30.12 30.09
VIS10 10 10 2 1 2.5 3 4 1 2.5 1.25 3 0.75
CIG46 46 40 25 16 16 6 6 22 6 5 5 4
CoverOVCOVCOVCOVCOVCOVCOVCOVCOVCOVCOVCOVCOVC
FltCatVFRVFRVFRIFRIFRIFRIFRIFRIFRIFRIFRIFRLIFR
WX-------SN-SN BRBR-SN BRBR-SN BR-SN BR-SN BR-SN BR-SN BR
WDir11080100100909090909080708080
WSpd7 6 7 6 5 5 6 5 5 7 5 4 5
WGst-- -- -- -- -- -- -- -- -- -- -- -- --
Raw hourly METARs
KBWI 172054Z 11007KT 10SM OVC046 01/M05 A3027 RMK AO2 SLP252 T00111050 56017
KBWI 172154Z 08006KT 10SM OVC046 01/M04 A3025 RMK AO2 SLP244 T00111044
KBWI 172254Z 10007KT 10SM OVC040 01/M04 A3025 RMK AO2 SLP243 T00111039
KBWI 172356Z COR 10006KT 2SM -SN FEW015 OVC025 01/M03 A3024 RMK AO2 P0000 T00061028
KBWI 180054Z 09005KT 1SM R10/P6000FT -SN BR FEW009 OVC016 M01/M02 A3023 RMK AO2 SLP238 P0003 T10061017
KBWI 180154Z 09005KT 2 1/2SM BR FEW009 BKN016 OVC030 M01/M01 A3021 RMK AO2 SNE46 SLP231 P0002 T10061011
KBWI 180254Z 09006KT 3SM -SN BR BKN006 OVC016 M01/M01 A3020 RMK AO2 SNB01E33B44 SLP229 P0000 60005 T10061011 56014
KBWI 180354Z 09005KT 4SM BR OVC006 M01/M01 A3019 RMK AO2 SNE00B36E48 SLP224 P0000 T10061011
KBWI 180454Z 09005KT 1SM R10/P6000FT -SN BR SCT007 OVC022 M01/M01 A3018 RMK AO2 SNB00 SLP220 P0001 T10061011 400281011
KBWI 180554Z 08007KT 2 1/2SM -SN BR BKN006 OVC022 M01/M01 A3015 RMK AO2 SLP209 4/002 P0001 60007 T10061011 10006 21011 58019
KBWI 180654Z 07005KT 1 1/4SM -SN BR BKN005 OVC016 M01/M01 A3013 RMK AO2 SLP203 P0001 T10061011
KBWI 180754Z 08004KT 3SM -SN BR OVC005 M01/M01 A3012 RMK AO2 SNE32B52 SLP199 P0000 T10061011
KBWI 180854Z 08005KT 3/4SM R10/P6000FT -SN BR OVC004 00/M01 A3009 RMK AO2 SLP191 P0002 60003 T00001006 58018



Page loaded:  09:12 UTC  |   01:12 AM Pacific  |   02:12 AM Mountain  |   03:12 AM Central  |   04:12 AM Eastern

 

ADVISORIES

FORECASTS

FORECASTS

OBSERVATIONS

USER TOOLS

ABOUT US